Time;durP1;ratioP1;P1;durP2;ratioP2;P2;SDS_P1;SDS_P2;PMS_P1;PMS_P2;Temp;Humidity;BMP_temperature;BMP_pressure;BME280_temperature;BME280_humidity;BME280_pressure;Samples;Min_cycle;Max_cycle;Signal;HPM_P1;HPM_P2
2022/08/09 00:01:03;;;;;;;6.50;0.75;;;18.00;99.90;;;;;;4982097;28;20107;-69
2022/08/09 00:03:29;;;;;;;1.83;0.65;;;17.90;99.90;;;;;;4974861;28;20026;-71
2022/08/09 00:05:54;;;;;;;2.95;0.68;;;17.90;99.90;;;;;;4977103;28;20042;-72
2022/08/09 00:08:20;;;;;;;4.72;0.60;;;17.90;99.90;;;;;;4984128;28;20040;-72
2022/08/09 00:10:46;;;;;;;1.88;0.50;;;17.90;99.90;;;;;;4980614;28;20069;-72
2022/08/09 00:13:11;;;;;;;3.13;0.63;;;17.90;99.90;;;;;;4972749;28;20027;-72
2022/08/09 00:15:37;;;;;;;6.85;1.02;;;17.90;99.90;;;;;;4975113;28;20038;-72
2022/08/09 00:18:03;;;;;;;3.53;0.98;;;17.80;99.90;;;;;;4977275;28;20574;-70
2022/08/09 00:20:29;;;;;;;5.15;0.95;;;17.80;99.90;;;;;;4973986;28;20046;-68
2022/08/09 00:22:54;;;;;;;3.13;0.77;;;17.80;99.90;;;;;;5007949;28;20038;-73
2022/08/09 00:25:20;;;;;;;2.42;0.65;;;17.70;99.90;;;;;;4978163;28;20457;-73
2022/08/09 00:27:45;;;;;;;1.98;0.50;;;17.70;99.90;;;;;;4987862;28;20406;-71
2022/08/09 00:30:12;;;;;;;2.08;0.85;;;17.70;99.90;;;;;;4985699;28;20054;-71
2022/08/09 00:32:38;;;;;;;2.15;0.70;;;17.60;99.90;;;;;;4984216;28;20089;-73
2022/08/09 00:35:05;;;;;;;2.75;0.90;;;17.60;99.90;;;;;;4984508;28;20046;-73
2022/08/09 00:37:30;;;;;;;1.75;0.60;;;17.60;99.90;;;;;;4974088;28;20038;-71
2022/08/09 00:39:56;;;;;;;2.05;0.40;;;17.60;99.90;;;;;;4977620;28;20041;-67
2022/08/09 00:42:21;;;;;;;1.15;0.60;;;17.50;99.90;;;;;;4973923;28;20499;-69
2022/08/09 00:44:47;;;;;;;4.00;0.88;;;17.50;99.90;;;;;;4976549;28;20495;-69
2022/08/09 00:47:14;;;;;;;2.15;1.08;;;17.50;99.90;;;;;;5004829;28;20610;-70
2022/08/09 00:49:39;;;;;;;3.80;0.75;;;17.50;99.90;;;;;;4973958;28;20542;-73
2022/08/09 00:52:05;;;;;;;2.67;0.80;;;17.40;99.90;;;;;;4975177;28;20050;-72
2022/08/09 00:54:32;;;;;;;1.45;0.55;;;17.40;99.90;;;;;;4972125;28;20035;-72
2022/08/09 00:56:58;;;;;;;4.30;0.65;;;17.40;99.90;;;;;;5006285;28;20411;-73
2022/08/09 00:59:24;;;;;;;6.47;0.85;;;17.40;99.90;;;;;;4971070;28;20043;-72
2022/08/09 01:01:51;;;;;;;3.58;1.00;;;17.40;99.90;;;;;;4983581;28;20041;-70
2022/08/09 01:04:28;;;;;;;5.60;0.70;;;17.30;99.90;;;;;;4976020;28;20400;-68
2022/08/09 01:07:09;;;;;;;2.03;0.65;;;17.30;99.90;;;;;;4983288;28;20108;-69
2022/08/09 01:10:08;;;;;;;3.78;1.00;;;17.30;99.90;;;;;;4981248;28;20042;-68
2022/08/09 01:12:39;;;;;;;1.70;0.60;;;17.30;99.90;;;;;;4986304;28;20449;-71
2022/08/09 01:15:09;;;;;;;3.72;0.88;;;17.20;99.90;;;;;;4983337;28;20043;-69
2022/08/09 01:17:50;;;;;;;2.58;0.70;;;17.20;99.90;;;;;;4984824;28;20034;-68
2022/08/09 01:20:38;;;;;;;4.68;0.80;;;17.20;99.90;;;;;;4985696;28;20041;-68
2022/08/09 01:23:19;;;;;;;4.05;0.93;;;17.20;99.90;;;;;;5003794;28;20118;-69
2022/08/09 01:25:59;;;;;;;6.80;1.13;;;17.20;99.90;;;;;;4965957;28;20057;-71
2022/08/09 01:28:26;;;;;;;1.48;0.80;;;17.30;99.90;;;;;;4960325;28;20070;-72
2022/08/09 01:30:54;;;;;;;4.07;1.63;;;17.20;99.90;;;;;;4958797;28;20563;-68
2022/08/09 01:33:28;;;;;;;1.85;0.98;;;17.20;99.90;;;;;;4959034;28;20046;-70
2022/08/09 01:36:07;;;;;;;2.90;0.80;;;17.10;99.90;;;;;;4959039;28;20134;-69
2022/08/09 01:38:37;;;;;;;1.48;0.68;;;17.10;99.90;;;;;;4958153;28;20042;-72
2022/08/09 01:41:17;;;;;;;6.57;1.40;;;17.00;99.90;;;;;;4961350;28;20404;-69
2022/08/09 01:43:46;;;;;;;4.28;1.15;;;17.00;99.90;;;;;;4957327;28;20040;-70
2022/08/09 01:46:14;;;;;;;6.10;1.30;;;17.00;99.90;;;;;;4959495;28;20027;-69
2022/08/09 01:48:41;;;;;;;3.42;1.02;;;17.00;99.90;;;;;;4958959;28;20122;-70
2022/08/09 01:51:08;;;;;;;7.60;1.17;;;16.90;99.90;;;;;;4960751;28;20520;-68
2022/08/09 01:53:35;;;;;;;4.57;1.38;;;16.90;99.90;;;;;;4957522;28;20403;-68
2022/08/09 01:56:03;;;;;;;6.20;1.15;;;16.90;99.90;;;;;;4990898;28;20090;-70
2022/08/09 01:58:30;;;;;;;2.15;1.00;;;16.90;99.90;;;;;;4959509;28;20033;-70
2022/08/09 02:00:58;;;;;;;5.55;1.30;;;16.90;99.90;;;;;;4996195;28;20038;-71
2022/08/09 02:03:24;;;;;;;3.53;1.05;;;16.90;99.90;;;;;;4970911;28;20053;-71
2022/08/09 02:05:52;;;;;;;6.60;1.30;;;16.90;99.90;;;;;;4987776;28;20089;-70
2022/08/09 02:08:20;;;;;;;4.05;1.20;;;16.80;99.90;;;;;;4988217;28;20023;-69
2022/08/09 02:10:49;;;;;;;3.25;1.15;;;16.80;99.90;;;;;;4988890;28;20113;-70
2022/08/09 02:13:17;;;;;;;2.92;1.33;;;16.80;99.90;;;;;;4986168;28;20023;-71
2022/08/09 02:15:48;;;;;;;2.58;0.90;;;16.80;99.90;;;;;;4966616;28;20026;-71
2022/08/09 02:18:21;;;;;;;3.67;1.40;;;16.80;99.90;;;;;;4988718;28;20129;-68
2022/08/09 02:20:57;;;;;;;4.97;1.33;;;16.80;99.90;;;;;;4960602;28;20042;-70
2022/08/09 02:23:46;;;;;;;4.53;1.10;;;16.80;99.90;;;;;;4981692;28;20039;-70
2022/08/09 02:26:14;;;;;;;4.45;1.20;;;16.70;99.90;;;;;;4995427;28;20379;-70
2022/08/09 02:28:45;;;;;;;4.90;1.83;;;16.70;99.90;;;;;;4985116;28;20035;-69
2022/08/09 02:31:17;;;;;;;2.55;1.10;;;16.70;99.90;;;;;;4984118;28;20109;-69
2022/08/09 02:33:46;;;;;;;4.80;1.50;;;16.70;99.90;;;;;;5007655;28;20105;-70
2022/08/09 02:36:22;;;;;;;3.95;1.85;;;16.70;99.90;;;;;;4979925;28;20045;-70
2022/08/09 02:38:52;;;;;;;7.10;1.63;;;16.70;99.90;;;;;;5008345;28;20224;-70
2022/08/09 02:41:31;;;;;;;7.47;1.40;;;16.70;99.90;;;;;;4979481;28;20109;-70
2022/08/09 02:44:01;;;;;;;2.42;1.52;;;16.60;99.90;;;;;;4984208;28;20039;-70
2022/08/09 02:46:28;;;;;;;;;;;16.60;99.90;;;;;;4985552;28;20693;-70
2022/08/09 02:48:55;;;;;;;4.63;1.85;;;16.60;99.90;;;;;;4980681;28;20013;-70
2022/08/09 02:51:23;;;;;;;5.00;1.70;;;16.60;99.90;;;;;;4977176;28;20034;-69
2022/08/09 02:53:53;;;;;;;5.00;1.77;;;16.60;99.90;;;;;;4976216;28;20061;-70
2022/08/09 02:56:20;;;;;;;5.43;2.20;;;16.70;99.90;;;;;;5010221;28;20133;-70
2022/08/09 02:58:48;;;;;;;4.40;1.92;;;16.60;99.90;;;;;;4977020;28;20543;-71
2022/08/09 03:01:16;;;;;;;3.45;1.65;;;16.60;99.90;;;;;;4986083;28;20034;-71
2022/08/09 03:03:42;;;;;;;7.13;1.85;;;16.50;99.90;;;;;;4978507;28;20038;-70
2022/08/09 03:06:13;;;;;;;2.72;1.60;;;16.50;99.90;;;;;;4976583;28;20432;-70
2022/08/09 03:08:42;;;;;;;5.22;1.73;;;16.50;99.90;;;;;;4979163;28;20034;-71
2022/08/09 03:11:08;;;;;;;5.63;2.05;;;16.40;99.90;;;;;;4976578;28;20573;-70
2022/08/09 03:13:35;;;;;;;4.13;1.70;;;16.40;99.90;;;;;;4981155;28;20043;-68
2022/08/09 03:16:02;;;;;;;7.97;2.20;;;16.40;99.90;;;;;;4987240;28;20672;-70
2022/08/09 03:18:27;;;;;;;6.63;3.03;;;16.40;99.90;;;;;;5007762;28;20045;-71
2022/08/09 03:20:55;;;;;;;6.97;2.25;;;16.50;99.90;;;;;;4977186;28;20026;-71
2022/08/09 03:23:21;;;;;;;6.53;2.60;;;16.50;99.90;;;;;;4979408;28;20094;-72
2022/08/09 03:25:48;;;;;;;6.82;2.50;;;16.40;99.90;;;;;;4985865;28;20117;-73
2022/08/09 03:28:16;;;;;;;8.73;3.28;;;16.40;99.90;;;;;;4982234;28;20034;-71
2022/08/09 03:30:42;;;;;;;4.57;2.60;;;16.40;99.90;;;;;;4981265;28;20035;-70
2022/08/09 03:33:09;;;;;;;7.60;2.50;;;16.30;99.90;;;;;;4980499;28;20065;-73
2022/08/09 03:35:35;;;;;;;5.38;2.20;;;16.30;99.90;;;;;;4975718;28;20035;-69
2022/08/09 03:38:02;;;;;;;6.15;3.55;;;16.20;99.90;;;;;;4978970;28;20451;-73
2022/08/09 03:40:27;;;;;;;6.47;2.00;;;16.20;99.90;;;;;;4976600;28;20038;-70
2022/08/09 03:42:53;;;;;;;14.75;2.63;;;16.20;99.90;;;;;;4977248;28;20046;-70
2022/08/09 03:45:18;;;;;;;8.05;2.67;;;16.20;99.90;;;;;;5009600;28;20113;-68
2022/08/09 03:47:44;;;;;;;4.53;2.08;;;16.20;99.90;;;;;;4976225;28;20534;-71
2022/08/09 03:50:11;;;;;;;5.38;2.33;;;16.20;99.90;;;;;;4975855;28;20815;-69
2022/08/09 03:52:39;;;;;;;6.57;2.28;;;16.20;99.90;;;;;;4977804;28;20042;-70
2022/08/09 03:55:08;;;;;;;5.57;2.40;;;16.10;99.90;;;;;;4972392;28;20562;-71
2022/08/09 03:57:37;;;;;;;6.43;2.20;;;16.10;99.90;;;;;;4977050;28;20038;-70
2022/08/09 04:00:03;;;;;;;5.00;2.38;;;16.10;99.90;;;;;;4977329;28;20039;-71
2022/08/09 04:02:30;;;;;;;2.92;1.80;;;16.10;99.90;;;;;;4978244;28;20096;-69
2022/08/09 04:05:00;;;;;;;4.97;2.17;;;16.00;99.90;;;;;;4972847;28;20045;-70
2022/08/09 04:07:27;;;;;;;;;;;16.00;99.90;;;;;;4975890;28;20081;-69
2022/08/09 04:09:52;;;;;;;5.43;2.40;;;16.00;99.90;;;;;;4975534;28;19949;-69
2022/08/09 04:12:45;;;;;;;4.82;2.00;;;16.00;99.90;;;;;;4982959;28;20038;-70
2022/08/09 04:15:12;;;;;;;7.03;2.75;;;16.00;99.90;;;;;;4994427;28;20034;-69
2022/08/09 04:17:39;;;;;;;3.72;1.92;;;15.90;99.90;;;;;;4992968;28;20122;-69
2022/08/09 04:20:07;;;;;;;4.22;2.42;;;15.90;99.90;;;;;;4981791;28;20039;-69
2022/08/09 04:22:33;;;;;;;6.30;2.60;;;15.90;99.90;;;;;;4973797;28;20035;-70
2022/08/09 04:24:59;;;;;;;4.82;2.17;;;15.90;99.90;;;;;;4981580;28;20044;-70
2022/08/09 04:27:24;;;;;;;6.35;2.53;;;15.90;99.90;;;;;;4983525;28;20046;-70
2022/08/09 04:29:50;;;;;;;4.93;2.72;;;15.90;99.90;;;;;;4976922;28;20046;-69
2022/08/09 04:32:16;;;;;;;5.40;2.08;;;15.80;99.90;;;;;;4978305;28;20039;-70
2022/08/09 04:34:41;;;;;;;8.57;2.90;;;15.80;99.90;;;;;;4973202;28;20077;-70
2022/08/09 04:37:07;;;;;;;6.20;2.70;;;15.80;99.90;;;;;;4975048;28;20164;-69
2022/08/09 04:39:33;;;;;;;5.15;2.40;;;15.90;99.90;;;;;;4974028;28;20550;-70
2022/08/09 04:41:58;;;;;;;6.07;3.67;;;15.80;99.90;;;;;;4977864;28;20085;-70
2022/08/09 04:44:24;;;;;;;6.22;2.70;;;15.80;99.90;;;;;;4975821;28;20038;-69
2022/08/09 04:46:51;;;;;;;4.25;2.30;;;15.80;99.90;;;;;;4980580;28;20035;-68
2022/08/09 04:49:16;;;;;;;4.43;2.08;;;15.80;99.90;;;;;;4976837;28;20030;-69
2022/08/09 04:51:42;;;;;;;7.35;2.78;;;15.90;99.90;;;;;;4988607;28;20056;-68
2022/08/09 04:54:08;;;;;;;3.35;2.10;;;15.90;99.90;;;;;;4985662;28;20042;-68
2022/08/09 04:56:33;;;;;;;5.70;2.05;;;15.90;99.90;;;;;;4985374;28;20038;-69
2022/08/09 04:58:59;;;;;;;5.45;2.20;;;15.90;99.90;;;;;;4986383;28;20153;-68
2022/08/09 05:01:25;;;;;;;3.92;2.20;;;16.00;99.90;;;;;;4985485;28;20560;-69
2022/08/09 05:03:53;;;;;;;5.70;2.22;;;16.00;99.90;;;;;;4985402;28;20046;-69
2022/08/09 05:06:19;;;;;;;5.97;2.47;;;16.00;99.90;;;;;;4983037;28;20044;-68
2022/08/09 05:08:44;;;;;;;6.55;2.20;;;16.00;99.90;;;;;;4986613;28;20046;-68
2022/08/09 05:11:10;;;;;;;8.20;2.92;;;16.00;99.90;;;;;;4985247;28;20037;-69
2022/08/09 05:13:36;;;;;;;9.98;2.35;;;16.00;99.90;;;;;;4984919;28;20081;-68
2022/08/09 05:16:01;;;;;;;7.15;2.33;;;16.10;99.90;;;;;;4986015;28;20043;-67
2022/08/09 05:18:32;;;;;;;5.00;2.28;;;16.10;99.90;;;;;;4985799;28;20050;-66
2022/08/09 05:20:58;;;;;;;10.95;3.35;;;16.10;99.90;;;;;;4985512;28;20027;-68
2022/08/09 05:23:24;;;;;;;8.80;1.98;;;16.10;99.90;;;;;;4983239;28;20076;-69
2022/08/09 05:25:50;;;;;;;4.53;2.30;;;16.20;99.90;;;;;;4986300;28;20054;-68
2022/08/09 05:28:16;;;;;;;8.20;2.88;;;16.10;99.90;;;;;;4981722;28;20035;-67
2022/08/09 05:30:43;;;;;;;8.48;3.08;;;16.20;99.90;;;;;;4987905;28;20044;-66
2022/08/09 05:33:08;;;;;;;9.18;2.88;;;16.20;99.90;;;;;;4988966;28;20042;-68
2022/08/09 05:35:34;;;;;;;11.57;2.70;;;16.20;99.90;;;;;;4989999;28;20038;-68
2022/08/09 05:37:59;;;;;;;6.82;2.65;;;16.20;99.90;;;;;;4991351;28;20053;-69
2022/08/09 05:40:27;;;;;;;6.13;2.40;;;16.30;99.90;;;;;;4989786;28;20073;-69
2022/08/09 05:42:53;;;;;;;9.25;2.60;;;16.30;99.90;;;;;;4991273;28;20521;-65
2022/08/09 05:45:19;;;;;;;12.55;3.67;;;16.40;99.90;;;;;;4992534;28;20039;-68
2022/08/09 05:47:45;;;;;;;5.00;2.42;;;16.40;99.90;;;;;;4984418;28;20053;-68
2022/08/09 05:50:11;;;;;;;8.00;2.70;;;16.50;99.90;;;;;;4983055;28;20034;-71
2022/08/09 05:52:37;;;;;;;9.63;2.17;;;16.50;99.90;;;;;;4984566;28;20046;-69
2022/08/09 05:55:03;;;;;;;5.28;2.50;;;16.50;99.90;;;;;;4984941;28;20038;-68
2022/08/09 05:57:28;;;;;;;4.63;2.53;;;16.60;99.90;;;;;;4984792;28;20116;-69
2022/08/09 05:59:54;;;;;;;4.95;2.53;;;16.70;99.90;;;;;;4983933;28;20042;-70
2022/08/09 06:02:20;;;;;;;6.75;2.50;;;16.80;99.90;;;;;;4984499;28;20038;-68
2022/08/09 06:04:45;;;;;;;8.38;2.45;;;16.90;99.90;;;;;;4993251;28;20046;-69
2022/08/09 06:07:11;;;;;;;4.88;2.70;;;17.00;99.90;;;;;;4996651;28;20092;-69
2022/08/09 06:09:36;;;;;;;6.07;2.65;;;17.10;99.90;;;;;;4995021;28;20117;-70
2022/08/09 06:12:02;;;;;;;4.82;2.17;;;17.20;99.90;;;;;;4988336;28;20030;-69
2022/08/09 06:14:28;;;;;;;4.03;1.90;;;17.30;99.90;;;;;;4984153;28;20034;-69
2022/08/09 06:16:54;;;;;;;6.72;2.15;;;17.40;99.90;;;;;;4984270;28;20038;-70
2022/08/09 06:19:20;;;;;;;6.75;2.70;;;17.50;99.90;;;;;;4981957;28;20566;-67
2022/08/09 06:21:46;;;;;;;10.85;3.25;;;17.60;99.90;;;;;;4983125;28;20125;-69
2022/08/09 06:24:12;;;;;;;2.72;1.73;;;17.70;99.90;;;;;;4980830;28;20042;-69
2022/08/09 06:26:40;;;;;;;4.82;2.03;;;17.90;99.90;;;;;;4985684;28;20043;-70
2022/08/09 06:29:07;;;;;;;5.18;2.10;;;18.00;99.90;;;;;;4987258;28;20800;-69
2022/08/09 06:31:34;;;;;;;3.40;1.55;;;18.20;99.90;;;;;;4981323;28;20069;-70
2022/08/09 06:34:00;;;;;;;4.28;1.90;;;18.40;99.90;;;;;;4982621;28;20030;-71
2022/08/09 06:36:26;;;;;;;6.82;2.20;;;18.70;99.90;;;;;;4982449;28;20038;-72
2022/08/09 06:38:51;;;;;;;5.53;1.92;;;19.00;99.90;;;;;;4983113;28;20435;-69
2022/08/09 06:41:17;;;;;;;3.33;1.60;;;19.30;99.90;;;;;;4981136;28;20125;-70
2022/08/09 06:43:43;;;;;;;4.68;1.70;;;19.70;99.90;;;;;;4982497;28;20057;-69
2022/08/09 06:46:09;;;;;;;8.30;2.08;;;20.40;99.90;;;;;;4983292;28;20113;-67
2022/08/09 06:48:34;;;;;;;13.18;1.60;;;21.00;99.90;;;;;;4981977;28;20076;-70
2022/08/09 06:51:00;;;;;;;3.95;1.85;;;21.70;99.90;;;;;;4982877;28;20034;-72
2022/08/09 06:53:26;;;;;;;10.18;1.35;;;22.40;99.90;;;;;;4980348;28;20112;-72
2022/08/09 06:55:52;;;;;;;3.45;1.00;;;23.20;99.90;;;;;;4982563;28;20093;-72
2022/08/09 06:58:18;;;;;;;2.67;1.23;;;23.70;99.90;;;;;;4980576;28;20458;-70
2022/08/09 07:00:43;;;;;;;3.88;1.48;;;24.20;99.90;;;;;;4983397;28;20037;-72
2022/08/09 07:03:09;;;;;;;7.75;1.48;;;24.50;99.70;;;;;;4983189;28;20038;-72
2022/08/09 07:05:35;;;;;;;1.67;0.98;;;24.80;99.50;;;;;;4981178;28;20069;-71
2022/08/09 07:08:00;;;;;;;1.55;0.90;;;25.30;99.10;;;;;;4980319;28;20030;-72
2022/08/09 07:10:26;;;;;;;2.95;1.40;;;25.70;98.10;;;;;;4979074;28;20049;-71
2022/08/09 07:12:51;;;;;;;5.45;1.58;;;26.20;97.10;;;;;;4980102;28;20034;-72
2022/08/09 07:15:17;;;;;;;1.65;0.93;;;26.70;96.60;;;;;;4980786;28;20050;-73
2022/08/09 07:17:43;;;;;;;4.55;1.42;;;27.30;95.80;;;;;;4982153;28;20042;-71
2022/08/09 07:20:09;;;;;;;1.98;1.20;;;28.00;94.30;;;;;;4980804;28;20533;-72
2022/08/09 07:22:34;;;;;;;6.05;1.45;;;28.20;93.70;;;;;;4980774;28;20046;-71
2022/08/09 07:25:01;;;;;;;4.35;1.20;;;28.50;92.80;;;;;;4979859;28;20093;-71
2022/08/09 07:27:27;;;;;;;2.08;1.40;;;28.30;92.80;;;;;;4979318;28;20034;-71
2022/08/09 07:29:54;;;;;;;6.18;1.30;;;28.10;92.30;;;;;;4982155;28;20038;-71
2022/08/09 07:32:19;;;;;;;3.22;1.48;;;27.80;93.10;;;;;;4978217;28;20125;-71
2022/08/09 07:34:45;;;;;;;4.60;1.33;;;27.50;92.20;;;;;;4981192;28;20053;-72
2022/08/09 07:37:11;;;;;;;2.95;1.38;;;27.00;93.00;;;;;;4981323;28;20632;-74
2022/08/09 07:39:36;;;;;;;1.90;0.85;;;26.40;93.10;;;;;;4980747;28;20046;-71
2022/08/09 07:42:02;;;;;;;1.63;0.95;;;26.00;93.80;;;;;;4980899;28;20113;-70
2022/08/09 07:44:28;;;;;;;2.63;0.90;;;25.40;94.80;;;;;;4982251;28;20038;-72
2022/08/09 07:46:54;;;;;;;2.17;0.65;;;24.80;95.20;;;;;;4982768;28;20034;-72
2022/08/09 07:49:19;;;;;;;3.90;0.77;;;24.40;95.80;;;;;;4981361;28;20037;-71
2022/08/09 07:51:45;;;;;;;4.25;0.90;;;24.00;95.80;;;;;;4982910;28;20120;-69
2022/08/09 07:54:10;;;;;;;2.33;0.70;;;23.60;97.00;;;;;;4982173;28;20092;-70
2022/08/09 07:56:37;;;;;;;3.35;0.95;;;23.40;96.70;;;;;;4980632;28;20172;-70
2022/08/09 07:59:03;;;;;;;4.65;1.20;;;23.00;97.30;;;;;;4986644;28;20038;-71
2022/08/09 08:01:29;;;;;;;1.25;0.52;;;23.00;97.90;;;;;;4981872;28;20022;-71
2022/08/09 08:03:54;;;;;;;1.38;0.57;;;22.80;98.00;;;;;;4983139;28;21860;-68
2022/08/09 08:06:20;;;;;;;1.77;0.55;;;22.70;98.70;;;;;;4981281;28;20465;-71
2022/08/09 08:08:46;;;;;;;3.35;0.70;;;22.60;98.80;;;;;;4984184;28;20053;-70
2022/08/09 08:11:12;;;;;;;2.17;0.43;;;22.50;98.30;;;;;;4982924;28;20030;-70
2022/08/09 08:13:38;;;;;;;5.80;0.80;;;22.50;98.30;;;;;;4983800;28;20213;-72
2022/08/09 08:16:03;;;;;;;2.45;0.43;;;22.50;98.50;;;;;;4982373;28;20761;-71
2022/08/09 08:18:29;;;;;;;3.67;0.73;;;22.50;98.40;;;;;;4981994;28;20046;-71
2022/08/09 08:20:55;;;;;;;0.77;0.30;;;22.50;98.40;;;;;;4983161;28;20029;-69
2022/08/09 08:23:21;;;;;;;1.05;0.50;;;22.50;98.60;;;;;;4979205;28;20038;-72
2022/08/09 08:25:47;;;;;;;0.73;0.25;;;22.50;98.20;;;;;;4978826;28;20042;-71
2022/08/09 08:28:14;;;;;;;0.40;0.30;;;22.60;97.90;;;;;;4981330;28;20660;-70
2022/08/09 08:30:40;;;;;;;3.58;0.77;;;22.50;97.60;;;;;;4981225;28;20434;-71
2022/08/09 08:33:06;;;;;;;1.42;0.43;;;22.60;97.40;;;;;;4980738;28;20042;-71
2022/08/09 08:35:31;;;;;;;1.40;0.50;;;22.60;97.90;;;;;;4981526;28;20845;-72
2022/08/09 08:37:57;;;;;;;2.58;0.65;;;22.70;98.20;;;;;;4980323;28;20461;-71
2022/08/09 08:40:23;;;;;;;1.08;0.60;;;22.60;97.90;;;;;;4980693;28;20791;-70
2022/08/09 08:42:49;;;;;;;1.35;0.40;;;22.70;97.40;;;;;;4983836;28;20037;-70
2022/08/09 08:45:21;;;;;;;2.65;0.57;;;22.80;97.30;;;;;;4982202;28;20088;-70
2022/08/09 08:47:47;;;;;;;1.42;0.30;;;22.80;97.40;;;;;;4980358;28;20519;-71
2022/08/09 08:50:15;;;;;;;3.97;0.47;;;22.90;97.50;;;;;;4981261;28;20046;-69
2022/08/09 08:52:41;;;;;;;2.17;0.20;;;22.90;97.00;;;;;;4982199;28;20050;-69
2022/08/09 08:55:08;;;;;;;3.50;0.35;;;23.00;96.10;;;;;;4982854;28;20026;-70
2022/08/09 08:57:34;;;;;;;3.05;0.40;;;23.10;96.40;;;;;;4980014;28;20116;-70
2022/08/09 08:59:59;;;;;;;1.77;0.45;;;23.10;96.00;;;;;;4982848;28;20823;-69
2022/08/09 09:02:28;;;;;;;2.50;0.65;;;23.10;96.10;;;;;;4978389;28;20038;-71
2022/08/09 09:04:57;;;;;;;0.45;0.13;;;23.20;95.50;;;;;;4982087;28;20108;-71
2022/08/09 09:07:24;;;;;;;1.23;0.20;;;23.10;95.90;;;;;;4980677;28;20030;-71
2022/08/09 09:09:52;;;;;;;1.88;0.25;;;23.20;95.90;;;;;;4981788;28;20034;-71
2022/08/09 09:12:20;;;;;;;2.67;0.28;;;23.20;95.50;;;;;;4979391;28;20128;-71
2022/08/09 09:14:48;;;;;;;1.52;0.20;;;23.20;95.70;;;;;;4980246;28;20038;-70
2022/08/09 09:17:14;;;;;;;1.08;0.43;;;23.40;95.20;;;;;;4978703;28;20035;-70
2022/08/09 09:19:41;;;;;;;0.40;0.20;;;23.50;95.30;;;;;;4982959;28;20038;-69
2022/08/09 09:22:18;;;;;;;3.03;0.43;;;23.50;95.20;;;;;;4979143;28;20046;-71
2022/08/09 09:24:53;;;;;;;0.52;0.17;;;23.60;94.60;;;;;;4980304;28;20114;-71
2022/08/09 09:27:20;;;;;;;2.00;0.20;;;23.60;94.50;;;;;;4980121;28;20034;-71
2022/08/09 09:29:46;;;;;;;1.02;0.20;;;23.60;94.10;;;;;;4983750;28;20069;-71
2022/08/09 09:32:21;;;;;;;2.85;0.20;;;23.70;93.40;;;;;;4984152;28;20045;-69
2022/08/09 09:35:07;;;;;;;0.75;0.20;;;23.70;93.40;;;;;;4986154;28;20053;-71
2022/08/09 09:37:33;;;;;;;0.32;0.32;;;23.70;92.90;;;;;;4981396;28;20038;-71
2022/08/09 09:39:58;;;;;;;8.95;0.45;;;23.80;93.30;;;;;;4982964;28;20663;-69
2022/08/09 09:42:28;;;;;;;0.22;0.10;;;23.90;93.40;;;;;;4983091;28;20076;-70
2022/08/09 09:45:06;;;;;;;1.10;0.20;;;24.00;92.90;;;;;;4981683;28;20026;-71
2022/08/09 09:47:32;;;;;;;0.20;0.10;;;23.90;92.70;;;;;;4982148;28;20775;-71
2022/08/09 09:49:59;;;;;;;0.80;0.30;;;24.00;92.90;;;;;;4982213;28;20069;-69
2022/08/09 09:52:26;;;;;;;0.63;0.13;;;24.00;92.50;;;;;;4983767;28;20038;-71
2022/08/09 09:55:00;;;;;;;2.60;0.10;;;24.20;91.90;;;;;;4985307;28;20037;-70
2022/08/09 09:57:25;;;;;;;3.20;0.10;;;24.20;91.20;;;;;;4985243;28;20066;-70
2022/08/09 09:59:53;;;;;;;3.00;0.20;;;24.20;91.30;;;;;;4983194;28;20152;-71
2022/08/09 10:02:20;;;;;;;1.60;0.32;;;24.30;91.40;;;;;;4978532;28;20080;-69
2022/08/09 10:05:03;;;;;;;2.78;0.28;;;24.40;91.20;;;;;;4981207;28;20039;-70
2022/08/09 10:07:28;;;;;;;1.38;0.20;;;24.50;90.80;;;;;;5007709;28;20114;-71
2022/08/09 10:09:57;;;;;;;0.20;0.00;;;24.60;89.90;;;;;;4977213;28;20042;-69
2022/08/09 10:12:32;;;;;;;2.38;0.10;;;24.50;90.10;;;;;;5007668;28;20039;-69
2022/08/09 10:15:14;;;;;;;2.28;0.10;;;24.40;90.50;;;;;;4981446;28;20032;-72
2022/08/09 10:17:40;;;;;;;1.02;0.10;;;24.40;90.80;;;;;;4978007;28;20046;-71
2022/08/09 10:20:26;;;;;;;0.40;0.10;;;24.50;90.70;;;;;;4984134;28;20034;-70
2022/08/09 10:22:59;;;;;;;0.55;0.10;;;24.40;90.80;;;;;;4983531;28;20108;-70
2022/08/09 10:25:25;;;;;;;0.98;0.10;;;24.50;91.10;;;;;;4982139;28;20039;-71
2022/08/09 10:27:50;;;;;;;2.45;0.20;;;24.60;90.10;;;;;;4982360;28;20049;-71
2022/08/09 10:30:16;;;;;;;0.10;0.10;;;24.60;90.30;;;;;;4983899;28;20109;-70
2022/08/09 10:32:44;;;;;;;0.40;0.10;;;24.70;90.80;;;;;;4982853;28;20038;-71
2022/08/09 10:35:10;;;;;;;0.50;0.05;;;24.70;91.00;;;;;;4983203;28;20030;-70
2022/08/09 10:37:36;;;;;;;0.95;0.13;;;24.80;90.50;;;;;;4981694;28;20128;-71
2022/08/09 10:40:04;;;;;;;1.77;0.13;;;24.90;89.10;;;;;;4984379;28;20137;-68
2022/08/09 10:42:29;;;;;;;0.15;0.00;;;25.00;88.60;;;;;;4981774;28;20502;-72
2022/08/09 10:45:08;;;;;;;0.13;0.10;;;25.00;89.20;;;;;;4982981;28;20084;-71
2022/08/09 10:47:56;;;;;;;1.27;0.17;;;24.90;89.20;;;;;;4981496;28;20049;-71
2022/08/09 10:51:05;;;;;;;0.57;0.05;;;24.90;87.90;;;;;;4983266;28;20119;-70
2022/08/09 10:53:26;;;;;;;0.68;0.10;;;24.90;88.10;;;;;;4981249;28;20038;-71
2022/08/09 10:56:16;;;;;;;0.30;0.10;;;24.80;86.60;;;;;;5010330;28;20038;-72
2022/08/09 10:58:42;;;;;;;0.15;0.00;;;24.80;86.60;;;;;;4983994;28;20049;-72
2022/08/09 11:01:34;;;;;;;2.22;0.20;;;24.80;86.30;;;;;;4981434;28;20037;-72
2022/08/09 11:04:12;;;;;;;0.17;0.00;;;24.90;85.80;;;;;;4982764;28;20042;-72
2022/08/09 11:06:39;;;;;;;0.38;0.00;;;24.80;86.60;;;;;;4962108;28;20106;-72
2022/08/09 11:09:06;;;;;;;0.40;0.08;;;24.90;85.40;;;;;;4963519;28;20081;-72
2022/08/09 11:11:54;;;;;;;0.30;0.30;;;25.00;83.90;;;;;;4962481;28;20042;-70
2022/08/09 11:14:53;;;;;;;3.38;0.10;;;25.00;85.90;;;;;;4962630;28;20475;-71
2022/08/09 11:17:19;;;;;;;2.38;0.13;;;25.10;86.20;;;;;;4962704;28;20118;-69
2022/08/09 11:20:00;;;;;;;5.68;0.45;;;25.20;85.80;;;;;;4963700;28;20092;-68
2022/08/09 11:22:46;;;;;;;3.53;0.35;;;25.20;85.90;;;;;;4957499;28;20554;-71
2022/08/09 11:25:16;;;;;;;1.20;0.20;;;25.10;86.60;;;;;;4962178;28;20035;-69
2022/08/09 11:27:47;;;;;;;0.30;0.20;;;25.20;87.10;;;;;;4963287;28;20043;-70
2022/08/09 11:30:29;;;;;;;1.27;0.30;;;25.30;86.70;;;;;;4960380;28;20317;-70
2022/08/09 11:33:13;;;;;;;0.68;0.25;;;25.40;86.40;;;;;;4963240;28;20041;-69
2022/08/09 11:35:44;;;;;;;0.95;0.10;;;25.40;85.50;;;;;;4962983;28;20043;-72
2022/08/09 11:38:18;;;;;;;2.70;0.52;;;25.30;86.70;;;;;;4959841;28;20278;-72
2022/08/09 11:40:45;;;;;;;1.23;0.20;;;25.40;86.60;;;;;;4964145;28;20130;-72
2022/08/09 11:43:15;;;;;;;0.43;0.20;;;25.40;86.70;;;;;;4960915;28;20038;-73
2022/08/09 11:45:56;;;;;;;0.57;0.15;;;25.40;86.70;;;;;;4961342;28;20392;-73
2022/08/09 11:48:23;;;;;;;32.60;0.60;;;25.40;84.90;;;;;;4960229;28;20031;-73
2022/08/09 11:51:04;;;;;;;0.80;0.32;;;25.50;86.60;;;;;;4963874;28;20046;-72
2022/08/09 11:53:32;;;;;;;0.20;0.10;;;25.50;86.80;;;;;;4961407;28;20030;-70
2022/08/09 11:56:19;;;;;;;2.38;0.50;;;25.50;85.20;;;;;;4963253;28;20489;-72
2022/08/09 11:58:50;;;;;;;1.60;0.45;;;25.40;86.70;;;;;;4959060;28;20058;-72
2022/08/09 12:01:17;;;;;;;1.55;0.20;;;25.50;86.90;;;;;;4960169;28;20042;-70
2022/08/09 12:03:45;;;;;;;0.57;0.30;;;25.60;86.10;;;;;;4963044;28;20058;-72
2022/08/09 12:06:15;;;;;;;0.60;0.13;;;25.60;87.90;;;;;;4962219;28;20066;-68
2022/08/09 12:08:46;;;;;;;0.70;0.20;;;25.40;88.10;;;;;;4963103;28;20042;-70
2022/08/09 12:11:13;;;;;;;0.63;0.10;;;25.40;88.10;;;;;;4960734;28;20624;-69
2022/08/09 12:13:41;;;;;;;1.77;0.30;;;25.30;86.80;;;;;;4960432;28;20098;-71
2022/08/09 12:16:16;;;;;;;0.85;0.00;;;25.20;87.70;;;;;;4962543;28;20066;-71
2022/08/09 12:18:45;;;;;;;1.95;0.45;;;25.20;86.60;;;;;;4962070;28;20181;-69
2022/08/09 12:21:12;;;;;;;1.10;0.10;;;25.20;86.60;;;;;;4959785;28;20035;-69
2022/08/09 12:23:46;;;;;;;1.10;0.43;;;25.20;85.90;;;;;;4960462;28;20046;-70
2022/08/09 12:26:12;;;;;;;0.50;0.10;;;25.30;85.40;;;;;;4992765;28;20201;-69
2022/08/09 12:28:45;;;;;;;1.33;0.10;;;25.20;86.20;;;;;;4960031;28;20035;-70
2022/08/09 12:31:22;;;;;;;0.20;0.00;;;25.20;87.50;;;;;;4960320;28;20071;-69
2022/08/09 12:33:48;;;;;;;0.98;0.10;;;25.20;84.30;;;;;;4960669;28;20049;-68
2022/08/09 12:36:15;;;;;;;0.73;0.20;;;25.20;85.00;;;;;;4961827;28;20636;-71
2022/08/09 12:38:40;;;;;;;0.73;0.20;;;25.20;85.60;;;;;;4963345;28;20090;-70
2022/08/09 12:41:06;;;;;;;0.85;0.30;;;25.20;85.60;;;;;;4961697;28;20039;-70
2022/08/09 12:43:32;;;;;;;0.80;0.20;;;25.20;86.20;;;;;;4959797;28;20109;-68
2022/08/09 12:45:58;;;;;;;1.33;0.30;;;25.20;88.90;;;;;;4962960;28;20954;-68
2022/08/09 12:48:27;;;;;;;1.88;0.20;;;25.20;91.00;;;;;;4960352;28;20038;-70
2022/08/09 12:50:52;;;;;;;0.50;0.15;;;25.10;91.20;;;;;;4992896;28;20045;-67
2022/08/09 12:53:24;;;;;;;2.30;0.60;;;25.10;90.20;;;;;;4961352;28;20233;-67
2022/08/09 12:55:49;;;;;;;1.48;0.40;;;25.10;91.50;;;;;;4962495;28;20051;-69